createdAt,value
2022-11-29T06:02:01.985Z,13.77
2022-11-29T06:05:08.670Z,11.40
2022-11-29T06:08:09.890Z,11.93
2022-11-29T06:10:51.270Z,12.82
2022-11-29T06:13:45.000Z,12.57
2022-11-29T06:16:46.907Z,12.15
2022-11-29T06:19:48.463Z,12.63
2022-11-29T06:22:25.337Z,13.93
2022-11-29T06:25:21.233Z,15.48
2022-11-29T06:28:12.611Z,13.85
2022-11-29T06:31:03.232Z,14.23
2022-11-29T06:33:51.405Z,13.90
2022-11-29T06:36:24.854Z,12.88
2022-11-29T06:38:51.691Z,14.18
2022-11-29T06:44:14.077Z,15.30
2022-11-29T06:46:47.995Z,15.88
2022-11-29T06:49:27.737Z,17.67
2022-11-29T06:52:09.980Z,17.85
2022-11-29T06:55:09.536Z,17.35
2022-11-29T06:58:12.447Z,16.70
2022-11-29T07:00:54.096Z,16.10
2022-11-29T07:03:32.462Z,15.35
2022-11-29T07:06:21.338Z,15.85
2022-11-29T07:08:52.469Z,13.25
2022-11-29T07:11:19.929Z,14.48
2022-11-29T07:13:46.775Z,15.85
2022-11-29T07:16:35.363Z,16.75
2022-11-29T07:19:30.954Z,17.00
2022-11-29T07:22:49.102Z,14.35
2022-11-29T07:25:38.339Z,16.15
2022-11-29T07:28:23.684Z,16.23
2022-11-29T07:31:18.919Z,13.35
2022-11-29T07:34:03.315Z,14.82
2022-11-29T07:37:21.235Z,15.52
2022-11-29T07:39:50.925Z,13.52
2022-11-29T07:45:25.978Z,14.85
2022-11-29T07:47:52.987Z,14.33
2022-11-29T07:50:21.060Z,13.25
2022-11-29T07:52:48.678Z,14.35
2022-11-29T07:55:19.609Z,13.65
2022-11-29T07:57:47.002Z,13.18
2022-11-29T08:00:15.337Z,13.68
2022-11-29T08:02:42.155Z,12.43
2022-11-29T08:05:10.576Z,13.40
2022-11-29T08:07:38.775Z,12.77
2022-11-29T08:10:09.014Z,12.55
2022-11-29T08:12:35.885Z,12.70
2022-11-29T08:15:02.668Z,12.45
2022-11-29T08:17:29.549Z,14.43
2022-11-29T08:19:59.976Z,13.93
2022-11-29T08:22:29.866Z,14.15
2022-11-29T08:24:56.428Z,12.93
2022-11-29T08:27:23.732Z,14.32
2022-11-29T08:29:50.262Z,12.90
2022-11-29T08:32:17.809Z,14.43
2022-11-29T08:34:47.175Z,16.42
2022-11-29T08:37:14.589Z,14.75
2022-11-29T08:39:41.317Z,14.10
2022-11-29T08:42:08.412Z,15.27
2022-11-29T08:44:34.960Z,14.27
2022-11-29T08:47:20.977Z,16.40
2022-11-29T08:50:02.849Z,16.65
2022-11-29T08:52:54.311Z,14.25
2022-11-29T08:55:24.070Z,17.25
2022-11-29T09:00:19.605Z,17.35
2022-11-29T09:02:46.187Z,15.35
2022-11-29T09:05:13.425Z,14.00
2022-11-29T09:07:41.026Z,14.43
2022-11-29T09:10:08.845Z,15.60
2022-11-29T09:12:37.363Z,16.25
2022-11-29T09:15:06.782Z,15.20
2022-11-29T09:17:33.807Z,16.05
2022-11-29T09:20:00.466Z,16.60
2022-11-29T09:22:27.649Z,15.43
2022-11-29T09:24:54.971Z,17.02
2022-11-29T09:27:22.140Z,17.73
2022-11-29T09:29:48.726Z,17.08
2022-11-29T09:32:15.631Z,16.13
2022-11-29T09:34:42.458Z,16.52
2022-11-29T09:37:09.798Z,16.83
2022-11-29T09:39:36.330Z,17.30
2022-11-29T09:42:23.759Z,16.13
2022-11-29T09:45:04.033Z,15.00
2022-11-29T09:47:49.527Z,14.07
2022-11-29T09:50:33.634Z,12.98
2022-11-29T09:53:38.995Z,13.05
2022-11-29T09:56:22.337Z,15.52
2022-11-29T09:59:01.818Z,14.25
2022-11-29T10:01:34.642Z,17.45
2022-11-29T10:04:05.259Z,15.32
2022-11-29T10:06:48.739Z,14.63
2022-11-29T10:09:22.740Z,14.48
2022-11-29T10:12:11.763Z,14.10
2022-11-29T10:14:47.879Z,16.07
2022-11-29T10:17:32.779Z,15.55
2022-11-29T10:20:17.239Z,14.25
2022-11-29T10:22:49.558Z,16.05
2022-11-29T10:25:23.174Z,17.73
2022-11-29T10:27:49.833Z,15.63
2022-11-29T10:30:17.888Z,15.63
2022-11-29T10:32:47.328Z,14.32
2022-11-29T10:37:56.381Z,13.98
2022-11-29T10:40:35.446Z,17.10
2022-11-29T10:43:02.894Z,14.65
2022-11-29T10:45:46.121Z,15.18
2022-11-29T10:48:16.812Z,17.48
2022-11-29T10:50:46.058Z,16.42
2022-11-29T10:53:14.802Z,17.77
2022-11-29T10:56:16.394Z,18.08
2022-11-29T10:59:05.055Z,16.48
2022-11-29T11:01:37.046Z,17.70
2022-11-29T11:04:07.372Z,18.58
2022-11-29T11:06:45.446Z,19.52
2022-11-29T11:09:22.282Z,18.25
2022-11-29T11:11:55.158Z,18.45
2022-11-29T11:14:38.671Z,17.45
2022-11-29T11:17:16.178Z,17.70
2022-11-29T11:19:53.546Z,17.35
2022-11-29T11:22:23.279Z,18.38
2022-11-29T11:25:07.369Z,17.13
2022-11-29T11:27:40.038Z,20.17
2022-11-29T11:30:18.636Z,18.50
2022-11-29T11:33:08.737Z,17.83
2022-11-29T11:35:37.491Z,16.30
2022-11-29T11:38:04.179Z,18.57
2022-11-29T11:40:31.270Z,18.10
2022-11-29T11:43:01.570Z,18.73
2022-11-29T11:45:32.957Z,18.25
2022-11-29T11:48:04.587Z,16.88
2022-11-29T11:50:50.225Z,17.23
2022-11-29T11:53:28.935Z,16.48
2022-11-29T11:56:14.923Z,16.38
2022-11-29T11:58:44.425Z,17.50
2022-11-29T12:01:25.430Z,16.77
2022-11-29T12:04:03.449Z,17.60
2022-11-29T12:06:43.438Z,17.23
2022-11-29T12:12:00.705Z,17.40
2022-11-29T12:14:41.478Z,18.60
2022-11-29T12:17:34.530Z,18.83
2022-11-29T12:20:39.555Z,17.15
2022-11-29T12:23:12.941Z,18.85
2022-11-29T12:25:47.124Z,17.58
2022-11-29T12:28:20.274Z,17.65
2022-11-29T12:31:06.224Z,17.27
2022-11-29T12:34:00.069Z,17.55
2022-11-29T12:36:54.800Z,17.98
2022-11-29T12:39:37.491Z,15.85
2022-11-29T12:42:36.476Z,17.92
2022-11-29T12:45:23.232Z,17.67
2022-11-29T12:48:15.169Z,16.00
2022-11-29T12:51:12.577Z,17.95
2022-11-29T12:54:11.598Z,16.98
2022-11-29T12:56:59.876Z,18.40
2022-11-29T13:00:10.933Z,16.83
2022-11-29T13:02:49.984Z,14.95
2022-11-29T13:05:23.373Z,17.85
2022-11-29T13:08:05.472Z,17.58
2022-11-29T13:10:34.985Z,16.20
2022-11-29T13:13:15.722Z,16.98
2022-11-29T13:15:54.663Z,19.60
2022-11-29T13:18:34.576Z,18.77
2022-11-29T13:26:41.964Z,19.05
2022-11-29T13:29:16.090Z,20.20
2022-11-29T13:31:44.022Z,20.23
2022-11-29T13:34:41.484Z,20.60
2022-11-29T13:37:19.236Z,18.83
2022-11-29T13:40:24.494Z,18.10
2022-11-29T13:43:17.774Z,18.95
2022-11-29T13:46:04.651Z,19.52
2022-11-29T13:48:47.954Z,19.65
2022-11-29T13:51:34.304Z,19.38
2022-11-29T13:54:05.194Z,20.10
2022-11-29T13:56:42.705Z,18.17
2022-11-29T13:59:18.798Z,17.85
2022-11-29T14:01:50.209Z,17.75
2022-11-29T14:04:25.969Z,19.40
2022-11-29T14:07:19.951Z,18.90
2022-11-29T14:10:03.257Z,18.00
2022-11-29T14:12:39.767Z,19.17
2022-11-29T14:15:20.903Z,18.05
2022-11-29T14:17:58.229Z,20.25
2022-11-29T14:20:33.596Z,18.30
2022-11-29T14:23:06.909Z,18.23
2022-11-29T14:25:51.679Z,16.80
2022-11-29T14:28:22.545Z,19.17
2022-11-29T14:30:53.462Z,21.52
2022-11-29T14:33:46.785Z,19.52
2022-11-29T14:36:19.215Z,18.38
2022-11-29T14:39:02.346Z,19.85
2022-11-29T14:41:38.105Z,18.73
2022-11-29T14:44:28.321Z,17.92
2022-11-29T14:47:02.266Z,16.60
2022-11-29T14:49:30.213Z,17.27
2022-11-29T14:52:28.731Z,17.55
2022-11-29T14:54:58.299Z,16.95
2022-11-29T14:57:47.134Z,16.73
2022-11-29T15:00:19.550Z,19.45
2022-11-29T15:03:10.086Z,17.15
2022-11-29T15:05:56.526Z,19.40
2022-11-29T15:08:33.671Z,17.40
2022-11-29T15:11:13.696Z,18.65
2022-11-29T15:13:54.724Z,19.48
2022-11-29T15:16:27.061Z,18.30
2022-11-29T15:19:31.562Z,17.95
2022-11-29T15:22:14.196Z,18.35
2022-11-29T15:24:51.951Z,19.60
2022-11-29T15:27:18.991Z,18.23
2022-11-29T15:29:48.553Z,18.00
2022-11-29T15:32:22.466Z,20.48
2022-11-29T15:34:51.812Z,23.45
2022-11-29T15:40:18.072Z,17.17
2022-11-29T15:42:48.723Z,19.35
2022-11-29T15:45:24.698Z,16.80
2022-11-29T15:47:52.409Z,16.20
2022-11-29T15:50:33.315Z,18.52
2022-11-29T15:53:06.066Z,16.75
2022-11-29T15:55:33.617Z,17.60
2022-11-29T15:58:08.548Z,18.25
2022-11-29T16:00:36.299Z,15.05
2022-11-29T16:03:05.450Z,17.30
2022-11-29T16:05:37.562Z,17.90
2022-11-29T16:08:15.126Z,15.05
2022-11-29T16:10:47.374Z,18.48
2022-11-29T16:13:35.496Z,17.88
2022-11-29T16:16:22.456Z,19.77
2022-11-29T16:18:50.875Z,16.70
2022-11-29T16:21:32.158Z,18.35
2022-11-29T16:24:12.477Z,16.52
2022-11-29T16:26:43.303Z,18.10
2022-11-29T16:29:27.597Z,16.55
2022-11-29T16:31:54.674Z,15.88
2022-11-29T16:34:30.898Z,18.50
2022-11-29T16:37:07.042Z,17.77
2022-11-29T16:39:37.771Z,16.55
2022-11-29T16:42:07.420Z,17.42
2022-11-29T16:44:40.685Z,18.20
2022-11-29T16:47:21.912Z,15.73
2022-11-29T16:50:07.266Z,16.98
2022-11-29T16:52:34.380Z,18.23
2022-11-29T16:55:01.367Z,19.75
2022-11-29T16:57:28.837Z,21.65
2022-11-29T16:59:56.050Z,19.58
2022-11-29T17:02:22.693Z,19.85
2022-11-29T17:04:51.489Z,18.40
2022-11-29T17:07:26.311Z,17.48
2022-11-29T17:09:53.807Z,18.70
2022-11-29T17:12:20.331Z,18.27
2022-11-29T17:14:47.742Z,17.73
2022-11-29T17:17:16.072Z,16.67
2022-11-29T17:19:43.257Z,16.38
2022-11-29T17:22:09.865Z,16.75
2022-11-29T17:24:41.173Z,15.00
2022-11-29T17:27:11.416Z,16.65
2022-11-29T17:29:38.284Z,16.38
2022-11-29T17:32:05.675Z,15.88
2022-11-29T17:34:33.287Z,18.30
2022-11-29T17:37:01.038Z,16.52
2022-11-29T17:39:27.677Z,17.13
2022-11-29T17:41:54.870Z,16.02
2022-11-29T17:44:21.437Z,14.25
2022-11-29T17:46:48.676Z,16.25
2022-11-29T17:49:15.286Z,16.13
2022-11-29T17:51:57.701Z,15.20
2022-11-29T17:54:24.602Z,15.15
2022-11-29T17:56:52.202Z,16.10
2022-11-29T17:59:19.094Z,16.15
2022-11-29T18:01:47.551Z,16.17
2022-11-29T18:04:14.686Z,17.30
2022-11-29T18:06:42.011Z,16.98
2022-11-29T18:09:10.553Z,17.48
2022-11-29T18:11:47.515Z,17.93
2022-11-29T18:14:23.218Z,14.70
2022-11-29T18:16:51.079Z,15.27
2022-11-29T18:19:20.003Z,15.20
2022-11-29T18:21:48.121Z,16.55
2022-11-29T18:24:15.037Z,17.63
2022-11-29T18:26:42.307Z,15.38
2022-11-29T18:29:09.557Z,15.43
2022-11-29T18:31:38.852Z,13.05
2022-11-29T18:34:09.255Z,14.15
2022-11-29T18:36:38.772Z,14.50
2022-11-29T18:39:10.550Z,13.95
2022-11-29T18:41:38.289Z,15.50
2022-11-29T18:44:07.704Z,14.23
2022-11-29T18:46:37.445Z,16.90
2022-11-29T18:51:32.139Z,17.33
2022-11-29T18:53:59.253Z,15.95
2022-11-29T18:56:28.744Z,17.08
2022-11-29T18:58:59.716Z,14.77
2022-11-29T19:01:29.051Z,16.08
2022-11-29T19:03:58.381Z,15.98
2022-11-29T19:06:35.606Z,15.25
2022-11-29T19:09:06.981Z,16.00
2022-11-29T19:11:34.662Z,14.32
2022-11-29T19:14:03.921Z,14.82
2022-11-29T19:16:33.667Z,14.23
2022-11-29T19:19:01.179Z,11.82
2022-11-29T19:21:32.158Z,14.60
2022-11-29T19:24:01.087Z,15.02
2022-11-29T19:26:30.051Z,14.27
2022-11-29T19:28:57.264Z,17.83
2022-11-29T19:31:25.422Z,19.50
2022-11-29T19:33:52.679Z,16.52
2022-11-29T19:36:24.216Z,13.75
2022-11-29T19:38:53.777Z,14.77
2022-11-29T19:41:30.078Z,16.38
2022-11-29T19:43:58.908Z,14.32
2022-11-29T19:46:31.893Z,15.43
2022-11-29T19:48:59.907Z,14.68
2022-11-29T19:51:28.675Z,14.73
2022-11-29T19:54:00.723Z,14.35
2022-11-29T19:56:31.047Z,14.25
2022-11-29T19:58:59.645Z,13.45
2022-11-29T20:01:37.730Z,16.65
2022-11-29T20:04:07.462Z,15.85
2022-11-29T20:06:34.858Z,17.15
2022-11-29T20:09:02.136Z,15.70
2022-11-29T20:11:29.864Z,15.20
2022-11-29T20:13:59.129Z,16.45
2022-11-29T20:16:27.299Z,17.42
2022-11-29T20:18:54.659Z,17.60
2022-11-29T20:21:25.745Z,19.17
2022-11-29T20:24:03.379Z,17.50
2022-11-29T20:26:32.520Z,16.88
2022-11-29T20:28:59.781Z,19.95
2022-11-29T20:31:27.045Z,18.00
2022-11-29T20:33:57.377Z,17.10
2022-11-29T20:36:30.603Z,17.15
2022-11-29T20:39:24.761Z,16.23
2022-11-29T20:42:28.861Z,15.55
2022-11-29T20:44:58.687Z,17.33
2022-11-29T20:47:53.521Z,18.63
2022-11-29T20:50:23.987Z,16.80
2022-11-29T20:53:08.879Z,17.75
2022-11-29T20:55:44.887Z,15.63
2022-11-29T20:58:13.348Z,16.13
2022-11-29T21:00:40.343Z,17.52
2022-11-29T21:03:06.954Z,19.63
2022-11-29T21:05:33.820Z,20.08
2022-11-29T21:08:01.911Z,19.10
2022-11-29T21:10:28.499Z,20.55
2022-11-29T21:12:56.713Z,21.67
2022-11-29T21:15:23.552Z,20.90
2022-11-29T21:17:51.136Z,20.60
2022-11-29T21:20:21.775Z,18.42
2022-11-29T21:23:01.061Z,20.25
2022-11-29T21:25:36.822Z,21.80
2022-11-29T21:28:08.173Z,19.45
